Nicolet, Canada
Current Conditions -  °F | °C
As of 4:00 PM on Friday 28 Nov 2014 (Local Time) from CYRQ Reporting Station
Overcast Overcast  
Wind Chill: 16°   Ceiling: 4200
Heat Index: 25°   Visibility: 9mi
Dew Point: 14°   Wind: 8mph
Humidity: 64%   Direction: 230°SW
Pressure: 30.08"   Gusts: NA
Location:  46.43°N, 72.39°W
Report Text: CYRQ 282100Z AUTO 23007KT 9SM OVC042 M04/M10 A3008 RMK SLP191
Loading
Personal Weather Stations






























Interactive Weather Map New forecast layout! Learn more

10-Day Weather Forecast

Advertisements
Track Severe Weather on mobile